Terminal Aerodrome Forecast
Issued by NWS Charleston, WV

Current Version | Previous Version | Graphics & Text | Print | Product List | Glossary On
Versions: 1 2 3 4 5 6 7 8 9 10 11 12 13 14 15 16 17 18 19 20 21 22 23 24 25
000
FTUS41 KRLX 201100
TAFBKW
TAF
KBKW 201125Z 2012/2112 14005KT P6SM SHRA OVC040
     FM201400 15007KT P6SM BKN045
     FM210300 14005KT P6SM BKN020
     FM210600 14004KT P6SM BKN010
     FM210800 VRB03KT 6SM BR BKN010
     FM211100 VRB03KT 5SM BR SCT010=

USA.gov is the U.S. government's official web portal to all federal, state and local government web resources and services.